sensor_id;sensor_type;location;lat;lon;timestamp;temperature;humidity
12436;DHT22;6282;51.440;6.938;2023-04-01T00:01:20;9.20;99.90
12436;DHT22;6282;51.440;6.938;2023-04-01T00:03:46;9.20;99.90
12436;DHT22;6282;51.440;6.938;2023-04-01T00:06:16;9.20;99.90
12436;DHT22;6282;51.440;6.938;2023-04-01T00:08:43;9.20;99.90
12436;DHT22;6282;51.440;6.938;2023-04-01T00:11:11;9.20;99.90
12436;DHT22;6282;51.440;6.938;2023-04-01T00:13:39;9.30;99.90
12436;DHT22;6282;51.440;6.938;2023-04-01T00:16:06;9.30;99.90
12436;DHT22;6282;51.440;6.938;2023-04-01T00:18:33;9.30;99.90
12436;DHT22;6282;51.440;6.938;2023-04-01T00:21:00;9.40;99.90
12436;DHT22;6282;51.440;6.938;2023-04-01T00:23:27;9.30;99.90
12436;DHT22;6282;51.440;6.938;2023-04-01T00:25:54;9.30;99.90
12436;DHT22;6282;51.440;6.938;2023-04-01T00:28:21;9.30;99.90
12436;DHT22;6282;51.440;6.938;2023-04-01T00:30:49;9.20;99.90
12436;DHT22;6282;51.440;6.938;2023-04-01T00:33:16;9.20;99.90
12436;DHT22;6282;51.440;6.938;2023-04-01T00:35:43;9.20;99.90
12436;DHT22;6282;51.440;6.938;2023-04-01T00:38:10;9.20;99.90
12436;DHT22;6282;51.440;6.938;2023-04-01T00:40:39;9.20;99.90
12436;DHT22;6282;51.440;6.938;2023-04-01T00:43:10;9.10;99.90
12436;DHT22;6282;51.440;6.938;2023-04-01T00:45:39;9.20;99.90
12436;DHT22;6282;51.440;6.938;2023-04-01T00:48:10;9.10;99.90
12436;DHT22;6282;51.440;6.938;2023-04-01T00:50:40;9.10;99.90
12436;DHT22;6282;51.440;6.938;2023-04-01T00:53:08;9.10;99.90
12436;DHT22;6282;51.440;6.938;2023-04-01T00:55:38;9.20;99.90
12436;DHT22;6282;51.440;6.938;2023-04-01T00:58:09;9.10;99.90
12436;DHT22;6282;51.440;6.938;2023-04-01T01:00:38;9.10;99.90
12436;DHT22;6282;51.440;6.938;2023-04-01T01:03:06;9.10;99.90
12436;DHT22;6282;51.440;6.938;2023-04-01T01:05:45;9.20;99.90
12436;DHT22;6282;51.440;6.938;2023-04-01T01:08:21;9.20;99.90
12436;DHT22;6282;51.440;6.938;2023-04-01T01:10:51;9.10;99.90
12436;DHT22;6282;51.440;6.938;2023-04-01T01:13:22;9.20;99.90
12436;DHT22;6282;51.440;6.938;2023-04-01T01:15:55;9.10;99.90
12436;DHT22;6282;51.440;6.938;2023-04-01T01:18:33;9.10;99.90
12436;DHT22;6282;51.440;6.938;2023-04-01T01:27:05;9.10;99.90
12436;DHT22;6282;51.440;6.938;2023-04-01T01:29:59;9.10;99.90
12436;DHT22;6282;51.440;6.938;2023-04-01T01:32:43;9.10;99.90
12436;DHT22;6282;51.440;6.938;2023-04-01T01:35:22;9.10;99.90
12436;DHT22;6282;51.440;6.938;2023-04-01T01:37:53;9.10;99.90
12436;DHT22;6282;51.440;6.938;2023-04-01T01:40:22;9.00;99.90
12436;DHT22;6282;51.440;6.938;2023-04-01T01:42:54;9.00;99.90
12436;DHT22;6282;51.440;6.938;2023-04-01T01:45:24;9.10;99.90
12436;DHT22;6282;51.440;6.938;2023-04-01T01:47:52;9.20;99.90
12436;DHT22;6282;51.440;6.938;2023-04-01T01:50:21;9.10;99.90
12436;DHT22;6282;51.440;6.938;2023-04-01T01:52:49;9.00;99.90
12436;DHT22;6282;51.440;6.938;2023-04-01T01:55:27;9.00;99.90
12436;DHT22;6282;51.440;6.938;2023-04-01T01:57:57;9.00;99.90
12436;DHT22;6282;51.440;6.938;2023-04-01T02:00:26;9.00;99.90
12436;DHT22;6282;51.440;6.938;2023-04-01T02:02:53;9.00;99.90
12436;DHT22;6282;51.440;6.938;2023-04-01T02:05:24;9.00;99.90
12436;DHT22;6282;51.440;6.938;2023-04-01T02:08:00;9.10;99.90
12436;DHT22;6282;51.440;6.938;2023-04-01T02:10:29;9.10;99.90
12436;DHT22;6282;51.440;6.938;2023-04-01T02:13:00;9.00;99.90
12436;DHT22;6282;51.440;6.938;2023-04-01T02:15:31;9.00;99.90
12436;DHT22;6282;51.440;6.938;2023-04-01T02:18:00;9.00;99.90
12436;DHT22;6282;51.440;6.938;2023-04-01T02:20:29;9.00;99.90
12436;DHT22;6282;51.440;6.938;2023-04-01T02:25:35;9.00;99.90
12436;DHT22;6282;51.440;6.938;2023-04-01T02:28:06;8.90;99.90
12436;DHT22;6282;51.440;6.938;2023-04-01T02:30:36;8.90;99.90
12436;DHT22;6282;51.440;6.938;2023-04-01T02:33:04;8.90;99.90
12436;DHT22;6282;51.440;6.938;2023-04-01T02:35:34;8.90;99.90
12436;DHT22;6282;51.440;6.938;2023-04-01T02:38:03;8.90;99.90
12436;DHT22;6282;51.440;6.938;2023-04-01T02:40:44;8.90;99.90
12436;DHT22;6282;51.440;6.938;2023-04-01T02:43:11;8.90;99.90
12436;DHT22;6282;51.440;6.938;2023-04-01T02:45:38;8.90;99.90
12436;DHT22;6282;51.440;6.938;2023-04-01T02:48:06;8.90;99.90
12436;DHT22;6282;51.440;6.938;2023-04-01T02:50:34;8.90;99.90
12436;DHT22;6282;51.440;6.938;2023-04-01T02:53:01;9.00;99.90
12436;DHT22;6282;51.440;6.938;2023-04-01T02:55:29;8.90;99.90
12436;DHT22;6282;51.440;6.938;2023-04-01T02:57:56;8.90;99.90
12436;DHT22;6282;51.440;6.938;2023-04-01T03:00:23;8.90;99.90
12436;DHT22;6282;51.440;6.938;2023-04-01T03:02:50;8.90;99.90
12436;DHT22;6282;51.440;6.938;2023-04-01T03:05:17;8.90;99.90
12436;DHT22;6282;51.440;6.938;2023-04-01T03:07:46;8.90;99.90
12436;DHT22;6282;51.440;6.938;2023-04-01T03:10:13;8.90;99.90
12436;DHT22;6282;51.440;6.938;2023-04-01T03:12:40;8.90;99.90
12436;DHT22;6282;51.440;6.938;2023-04-01T03:15:10;8.80;99.90
12436;DHT22;6282;51.440;6.938;2023-04-01T03:17:37;8.90;99.90
12436;DHT22;6282;51.440;6.938;2023-04-01T03:20:05;8.90;99.90
12436;DHT22;6282;51.440;6.938;2023-04-01T03:22:33;8.90;99.90
12436;DHT22;6282;51.440;6.938;2023-04-01T03:25:02;8.80;99.90
12436;DHT22;6282;51.440;6.938;2023-04-01T03:27:29;8.90;99.90
12436;DHT22;6282;51.440;6.938;2023-04-01T03:29:56;8.90;99.90
12436;DHT22;6282;51.440;6.938;2023-04-01T03:32:22;8.90;99.90
12436;DHT22;6282;51.440;6.938;2023-04-01T03:34:49;8.90;99.90
12436;DHT22;6282;51.440;6.938;2023-04-01T03:37:16;9.00;99.90
12436;DHT22;6282;51.440;6.938;2023-04-01T03:39:43;8.90;99.90
12436;DHT22;6282;51.440;6.938;2023-04-01T03:42:12;8.90;99.90
12436;DHT22;6282;51.440;6.938;2023-04-01T03:44:39;9.00;99.90
12436;DHT22;6282;51.440;6.938;2023-04-01T03:47:05;8.90;99.90
12436;DHT22;6282;51.440;6.938;2023-04-01T03:49:34;8.90;99.90
12436;DHT22;6282;51.440;6.938;2023-04-01T03:52:01;8.90;99.90
12436;DHT22;6282;51.440;6.938;2023-04-01T03:54:28;8.90;99.90
12436;DHT22;6282;51.440;6.938;2023-04-01T03:56:55;8.80;99.90
12436;DHT22;6282;51.440;6.938;2023-04-01T03:59:24;8.90;99.90
12436;DHT22;6282;51.440;6.938;2023-04-01T04:01:51;8.90;99.90
12436;DHT22;6282;51.440;6.938;2023-04-01T04:04:18;8.90;99.90
12436;DHT22;6282;51.440;6.938;2023-04-01T04:06:45;8.90;99.90
12436;DHT22;6282;51.440;6.938;2023-04-01T04:09:12;8.90;99.90
12436;DHT22;6282;51.440;6.938;2023-04-01T04:11:39;8.90;99.90
12436;DHT22;6282;51.440;6.938;2023-04-01T04:14:06;9.10;99.90
12436;DHT22;6282;51.440;6.938;2023-04-01T04:16:36;8.90;99.90
12436;DHT22;6282;51.440;6.938;2023-04-01T04:19:03;8.90;99.90
12436;DHT22;6282;51.440;6.938;2023-04-01T04:21:30;8.90;99.90
12436;DHT22;6282;51.440;6.938;2023-04-01T04:23:58;9.00;99.90
12436;DHT22;6282;51.440;6.938;2023-04-01T04:26:25;8.90;99.90
12436;DHT22;6282;51.440;6.938;2023-04-01T04:28:54;8.90;99.90
12436;DHT22;6282;51.440;6.938;2023-04-01T04:31:22;8.90;99.90
12436;DHT22;6282;51.440;6.938;2023-04-01T04:33:51;8.90;99.90
12436;DHT22;6282;51.440;6.938;2023-04-01T04:36:19;8.90;99.90
12436;DHT22;6282;51.440;6.938;2023-04-01T04:38:46;8.90;99.90
12436;DHT22;6282;51.440;6.938;2023-04-01T04:41:14;8.90;99.90
12436;DHT22;6282;51.440;6.938;2023-04-01T04:43:49;9.20;99.90
12436;DHT22;6282;51.440;6.938;2023-04-01T04:46:16;8.80;99.90
12436;DHT22;6282;51.440;6.938;2023-04-01T04:48:43;8.90;99.90
12436;DHT22;6282;51.440;6.938;2023-04-01T04:51:14;8.90;99.90
12436;DHT22;6282;51.440;6.938;2023-04-01T04:53:41;8.90;99.90
12436;DHT22;6282;51.440;6.938;2023-04-01T04:56:08;8.90;99.90
12436;DHT22;6282;51.440;6.938;2023-04-01T04:58:35;8.90;99.90
12436;DHT22;6282;51.440;6.938;2023-04-01T05:01:06;8.90;99.90
12436;DHT22;6282;51.440;6.938;2023-04-01T05:03:33;8.90;99.90
12436;DHT22;6282;51.440;6.938;2023-04-01T05:06:00;8.90;99.90
12436;DHT22;6282;51.440;6.938;2023-04-01T05:08:28;8.90;99.90
12436;DHT22;6282;51.440;6.938;2023-04-01T05:10:55;8.90;99.90
12436;DHT22;6282;51.440;6.938;2023-04-01T05:13:22;8.90;99.90
12436;DHT22;6282;51.440;6.938;2023-04-01T05:15:49;8.90;99.90
12436;DHT22;6282;51.440;6.938;2023-04-01T05:18:16;8.90;99.90
12436;DHT22;6282;51.440;6.938;2023-04-01T05:20:46;8.90;99.90
12436;DHT22;6282;51.440;6.938;2023-04-01T05:23:14;8.90;99.90
12436;DHT22;6282;51.440;6.938;2023-04-01T05:25:42;8.90;99.90
12436;DHT22;6282;51.440;6.938;2023-04-01T05:28:10;8.90;99.90
12436;DHT22;6282;51.440;6.938;2023-04-01T05:30:39;8.90;99.90
12436;DHT22;6282;51.440;6.938;2023-04-01T05:33:07;8.90;99.90
12436;DHT22;6282;51.440;6.938;2023-04-01T05:35:33;8.90;99.90
12436;DHT22;6282;51.440;6.938;2023-04-01T05:38:00;9.00;99.90
12436;DHT22;6282;51.440;6.938;2023-04-01T05:40:27;8.90;99.90
12436;DHT22;6282;51.440;6.938;2023-04-01T05:42:56;8.90;99.90
12436;DHT22;6282;51.440;6.938;2023-04-01T05:45:23;8.90;99.90
12436;DHT22;6282;51.440;6.938;2023-04-01T05:47:50;8.90;99.90
12436;DHT22;6282;51.440;6.938;2023-04-01T05:50:17;9.00;99.90
12436;DHT22;6282;51.440;6.938;2023-04-01T05:52:44;9.00;99.90
12436;DHT22;6282;51.440;6.938;2023-04-01T05:55:11;8.90;99.90
12436;DHT22;6282;51.440;6.938;2023-04-01T05:57:38;9.00;99.90
12436;DHT22;6282;51.440;6.938;2023-04-01T06:00:07;8.90;99.90
12436;DHT22;6282;51.440;6.938;2023-04-01T06:02:34;8.90;99.90
12436;DHT22;6282;51.440;6.938;2023-04-01T06:05:12;9.00;99.90
12436;DHT22;6282;51.440;6.938;2023-04-01T06:07:40;8.90;99.90
12436;DHT22;6282;51.440;6.938;2023-04-01T06:10:12;8.90;99.90
12436;DHT22;6282;51.440;6.938;2023-04-01T06:12:45;8.90;99.90
12436;DHT22;6282;51.440;6.938;2023-04-01T06:15:33;9.00;99.90
12436;DHT22;6282;51.440;6.938;2023-04-01T06:18:35;9.00;99.90
12436;DHT22;6282;51.440;6.938;2023-04-01T06:21:21;9.00;99.90
12436;DHT22;6282;51.440;6.938;2023-04-01T06:23:59;9.00;99.90
12436;DHT22;6282;51.440;6.938;2023-04-01T06:26:33;8.90;99.90
12436;DHT22;6282;51.440;6.938;2023-04-01T06:29:39;9.00;99.90
12436;DHT22;6282;51.440;6.938;2023-04-01T06:32:28;8.90;99.90
12436;DHT22;6282;51.440;6.938;2023-04-01T06:35:30;9.00;99.90
12436;DHT22;6282;51.440;6.938;2023-04-01T06:41:31;9.00;99.90
12436;DHT22;6282;51.440;6.938;2023-04-01T06:44:11;9.00;99.90
12436;DHT22;6282;51.440;6.938;2023-04-01T06:46:45;9.00;99.90
12436;DHT22;6282;51.440;6.938;2023-04-01T06:49:28;9.00;99.90
12436;DHT22;6282;51.440;6.938;2023-04-01T06:52:02;9.00;99.90
12436;DHT22;6282;51.440;6.938;2023-04-01T06:54:34;9.10;99.90
12436;DHT22;6282;51.440;6.938;2023-04-01T06:57:08;9.00;99.90
12436;DHT22;6282;51.440;6.938;2023-04-01T06:59:38;9.00;99.90
12436;DHT22;6282;51.440;6.938;2023-04-01T07:02:16;9.00;99.90
12436;DHT22;6282;51.440;6.938;2023-04-01T07:04:48;9.00;99.90
12436;DHT22;6282;51.440;6.938;2023-04-01T07:07:24;9.00;99.90
12436;DHT22;6282;51.440;6.938;2023-04-01T07:09:56;9.00;99.90
12436;DHT22;6282;51.440;6.938;2023-04-01T07:12:32;9.10;99.90
12436;DHT22;6282;51.440;6.938;2023-04-01T07:15:05;9.00;99.90
12436;DHT22;6282;51.440;6.938;2023-04-01T07:17:39;9.00;99.90
12436;DHT22;6282;51.440;6.938;2023-04-01T07:20:14;9.00;99.90
12436;DHT22;6282;51.440;6.938;2023-04-01T07:22:45;9.10;99.90
12436;DHT22;6282;51.440;6.938;2023-04-01T07:25:14;9.00;99.90
12436;DHT22;6282;51.440;6.938;2023-04-01T07:27:42;9.10;99.90
12436;DHT22;6282;51.440;6.938;2023-04-01T07:30:14;9.10;99.90
12436;DHT22;6282;51.440;6.938;2023-04-01T07:32:45;9.20;99.90
12436;DHT22;6282;51.440;6.938;2023-04-01T07:35:27;9.20;99.90
12436;DHT22;6282;51.440;6.938;2023-04-01T07:38:08;9.20;99.90
12436;DHT22;6282;51.440;6.938;2023-04-01T07:40:42;9.20;99.90
12436;DHT22;6282;51.440;6.938;2023-04-01T07:43:30;9.10;99.90
12436;DHT22;6282;51.440;6.938;2023-04-01T07:46:03;9.10;99.90
12436;DHT22;6282;51.440;6.938;2023-04-01T07:48:45;9.10;99.90
12436;DHT22;6282;51.440;6.938;2023-04-01T07:51:18;9.10;99.90
12436;DHT22;6282;51.440;6.938;2023-04-01T07:53:51;9.20;99.90
12436;DHT22;6282;51.440;6.938;2023-04-01T07:56:25;9.10;99.90
12436;DHT22;6282;51.440;6.938;2023-04-01T07:59:00;9.10;99.90
12436;DHT22;6282;51.440;6.938;2023-04-01T08:01:32;9.20;99.90
12436;DHT22;6282;51.440;6.938;2023-04-01T08:04:33;9.20;99.90
12436;DHT22;6282;51.440;6.938;2023-04-01T08:07:07;9.20;99.90
12436;DHT22;6282;51.440;6.938;2023-04-01T08:09:42;9.20;99.90
12436;DHT22;6282;51.440;6.938;2023-04-01T08:12:18;9.20;99.90
12436;DHT22;6282;51.440;6.938;2023-04-01T08:14:56;9.20;99.90
12436;DHT22;6282;51.440;6.938;2023-04-01T08:17:31;9.20;99.90
12436;DHT22;6282;51.440;6.938;2023-04-01T08:20:17;9.20;99.90
12436;DHT22;6282;51.440;6.938;2023-04-01T08:22:50;9.20;99.90
12436;DHT22;6282;51.440;6.938;2023-04-01T08:25:20;9.20;99.90
12436;DHT22;6282;51.440;6.938;2023-04-01T08:27:52;9.20;99.90
12436;DHT22;6282;51.440;6.938;2023-04-01T08:30:23;9.20;99.90
12436;DHT22;6282;51.440;6.938;2023-04-01T08:32:54;9.30;99.90
12436;DHT22;6282;51.440;6.938;2023-04-01T08:35:27;9.30;99.90
12436;DHT22;6282;51.440;6.938;2023-04-01T08:38:01;9.40;99.90
12436;DHT22;6282;51.440;6.938;2023-04-01T08:40:49;9.30;99.90
12436;DHT22;6282;51.440;6.938;2023-04-01T08:43:27;9.30;99.90
12436;DHT22;6282;51.440;6.938;2023-04-01T08:46:28;9.30;99.90
12436;DHT22;6282;51.440;6.938;2023-04-01T08:49:08;9.30;99.90
12436;DHT22;6282;51.440;6.938;2023-04-01T08:55:09;9.40;99.90
12436;DHT22;6282;51.440;6.938;2023-04-01T08:57:48;9.40;99.90
12436;DHT22;6282;51.440;6.938;2023-04-01T09:00:26;9.40;99.90
12436;DHT22;6282;51.440;6.938;2023-04-01T09:12:30;9.40;99.90
12436;DHT22;6282;51.440;6.938;2023-04-01T09:18:15;9.40;99.90
12436;DHT22;6282;51.440;6.938;2023-04-01T09:24:19;9.50;99.90
12436;DHT22;6282;51.440;6.938;2023-04-01T09:27:02;9.60;99.90
12436;DHT22;6282;51.440;6.938;2023-04-01T09:29:48;9.70;99.90
12436;DHT22;6282;51.440;6.938;2023-04-01T09:32:40;9.80;99.90
12436;DHT22;6282;51.440;6.938;2023-04-01T09:35:21;9.70;99.90
12436;DHT22;6282;51.440;6.938;2023-04-01T09:37:53;9.70;99.90
12436;DHT22;6282;51.440;6.938;2023-04-01T09:40:31;9.80;99.90
12436;DHT22;6282;51.440;6.938;2023-04-01T09:43:28;9.90;99.90
12436;DHT22;6282;51.440;6.938;2023-04-01T09:46:17;9.80;99.90
12436;DHT22;6282;51.440;6.938;2023-04-01T09:52:02;9.90;99.90
12436;DHT22;6282;51.440;6.938;2023-04-01T09:54:50;9.90;99.90
12436;DHT22;6282;51.440;6.938;2023-04-01T09:57:52;9.90;99.90
12436;DHT22;6282;51.440;6.938;2023-04-01T10:13:22;10.00;99.90
12436;DHT22;6282;51.440;6.938;2023-04-01T10:16:19;9.90;99.90
12436;DHT22;6282;51.440;6.938;2023-04-01T10:19:12;9.90;99.90
12436;DHT22;6282;51.440;6.938;2023-04-01T10:28:06;10.00;99.90
12436;DHT22;6282;51.440;6.938;2023-04-01T10:34:11;10.00;99.90
12436;DHT22;6282;51.440;6.938;2023-04-01T10:36:52;9.90;99.90
12436;DHT22;6282;51.440;6.938;2023-04-01T10:39:34;9.90;99.90
12436;DHT22;6282;51.440;6.938;2023-04-01T10:45:22;9.90;99.90
12436;DHT22;6282;51.440;6.938;2023-04-01T10:48:13;10.10;99.90
12436;DHT22;6282;51.440;6.938;2023-04-01T10:51:12;10.10;99.90
12436;DHT22;6282;51.440;6.938;2023-04-01T10:53:49;10.10;99.90
12436;DHT22;6282;51.440;6.938;2023-04-01T10:56:34;9.90;99.90
12436;DHT22;6282;51.440;6.938;2023-04-01T10:59:42;9.90;99.90
12436;DHT22;6282;51.440;6.938;2023-04-01T11:24:16;10.00;99.90
12436;DHT22;6282;51.440;6.938;2023-04-01T11:26:55;10.20;99.90
12436;DHT22;6282;51.440;6.938;2023-04-01T11:29:43;10.20;99.90
12436;DHT22;6282;51.440;6.938;2023-04-01T11:32:20;10.10;99.90
12436;DHT22;6282;51.440;6.938;2023-04-01T11:34:59;10.10;99.90
12436;DHT22;6282;51.440;6.938;2023-04-01T11:37:36;10.20;99.90
12436;DHT22;6282;51.440;6.938;2023-04-01T11:40:11;10.20;99.90
12436;DHT22;6282;51.440;6.938;2023-04-01T11:42:51;10.10;99.90
12436;DHT22;6282;51.440;6.938;2023-04-01T11:45:28;10.10;99.90
12436;DHT22;6282;51.440;6.938;2023-04-01T11:51:16;10.20;99.90
12436;DHT22;6282;51.440;6.938;2023-04-01T11:53:52;10.20;99.90
12436;DHT22;6282;51.440;6.938;2023-04-01T11:56:34;10.20;99.90
12436;DHT22;6282;51.440;6.938;2023-04-01T12:01:59;10.20;99.90
12436;DHT22;6282;51.440;6.938;2023-04-01T12:04:55;10.30;99.90
12436;DHT22;6282;51.440;6.938;2023-04-01T12:07:42;10.30;99.90
12436;DHT22;6282;51.440;6.938;2023-04-01T12:10:17;10.50;99.90
12436;DHT22;6282;51.440;6.938;2023-04-01T12:12:51;10.50;99.90
12436;DHT22;6282;51.440;6.938;2023-04-01T12:15:26;10.40;99.90
12436;DHT22;6282;51.440;6.938;2023-04-01T12:18:00;10.30;99.90
12436;DHT22;6282;51.440;6.938;2023-04-01T12:20:39;10.20;99.90
12436;DHT22;6282;51.440;6.938;2023-04-01T12:23:30;10.40;99.90
12436;DHT22;6282;51.440;6.938;2023-04-01T12:26:17;10.40;99.90
12436;DHT22;6282;51.440;6.938;2023-04-01T12:28:58;10.50;99.90
12436;DHT22;6282;51.440;6.938;2023-04-01T12:31:34;10.50;99.90
12436;DHT22;6282;51.440;6.938;2023-04-01T12:34:49;10.50;99.90
12436;DHT22;6282;51.440;6.938;2023-04-01T12:37:29;10.40;99.90
12436;DHT22;6282;51.440;6.938;2023-04-01T12:40:30;10.40;99.90
12436;DHT22;6282;51.440;6.938;2023-04-01T12:43:11;10.50;99.90
12436;DHT22;6282;51.440;6.938;2023-04-01T12:45:45;10.50;99.90
12436;DHT22;6282;51.440;6.938;2023-04-01T12:51:46;10.50;99.90
12436;DHT22;6282;51.440;6.938;2023-04-01T12:57:45;10.30;99.90
12436;DHT22;6282;51.440;6.938;2023-04-01T13:00:41;10.30;99.90
12436;DHT22;6282;51.440;6.938;2023-04-01T13:03:35;10.20;99.90
12436;DHT22;6282;51.440;6.938;2023-04-01T13:06:26;10.20;99.90
12436;DHT22;6282;51.440;6.938;2023-04-01T13:09:05;10.20;99.90
12436;DHT22;6282;51.440;6.938;2023-04-01T13:11:42;10.10;99.90
12436;DHT22;6282;51.440;6.938;2023-04-01T13:14:45;10.10;99.90
12436;DHT22;6282;51.440;6.938;2023-04-01T13:17:20;10.10;99.90
12436;DHT22;6282;51.440;6.938;2023-04-01T13:19:57;10.10;99.90
12436;DHT22;6282;51.440;6.938;2023-04-01T13:22:29;10.10;99.90
12436;DHT22;6282;51.440;6.938;2023-04-01T13:25:00;10.10;99.90
12436;DHT22;6282;51.440;6.938;2023-04-01T13:27:34;10.10;99.90
12436;DHT22;6282;51.440;6.938;2023-04-01T13:30:18;10.10;99.90
12436;DHT22;6282;51.440;6.938;2023-04-01T13:32:52;10.10;99.90
12436;DHT22;6282;51.440;6.938;2023-04-01T13:35:31;10.20;99.90
12436;DHT22;6282;51.440;6.938;2023-04-01T13:38:17;10.10;99.90
12436;DHT22;6282;51.440;6.938;2023-04-01T13:40:52;10.20;99.90
12436;DHT22;6282;51.440;6.938;2023-04-01T13:43:23;10.30;99.90
12436;DHT22;6282;51.440;6.938;2023-04-01T13:46:16;10.20;99.90
12436;DHT22;6282;51.440;6.938;2023-04-01T13:49:02;10.20;99.90
12436;DHT22;6282;51.440;6.938;2023-04-01T13:52:07;10.10;99.90
12436;DHT22;6282;51.440;6.938;2023-04-01T13:55:00;10.10;99.90
12436;DHT22;6282;51.440;6.938;2023-04-01T13:57:43;10.00;99.90
12436;DHT22;6282;51.440;6.938;2023-04-01T14:00:23;10.10;99.90
12436;DHT22;6282;51.440;6.938;2023-04-01T14:03:11;10.10;99.90
12436;DHT22;6282;51.440;6.938;2023-04-01T14:05:47;10.10;99.90
12436;DHT22;6282;51.440;6.938;2023-04-01T14:08:47;10.10;99.90
12436;DHT22;6282;51.440;6.938;2023-04-01T14:11:25;10.00;99.90
12436;DHT22;6282;51.440;6.938;2023-04-01T14:14:01;10.00;99.90
12436;DHT22;6282;51.440;6.938;2023-04-01T14:16:54;10.00;99.90
12436;DHT22;6282;51.440;6.938;2023-04-01T14:19:38;10.00;99.90
12436;DHT22;6282;51.440;6.938;2023-04-01T14:22:16;9.90;99.90
12436;DHT22;6282;51.440;6.938;2023-04-01T14:25:02;9.90;99.90
12436;DHT22;6282;51.440;6.938;2023-04-01T14:27:46;9.90;99.90
12436;DHT22;6282;51.440;6.938;2023-04-01T14:30:27;10.00;99.90
12436;DHT22;6282;51.440;6.938;2023-04-01T14:33:02;10.10;99.90
12436;DHT22;6282;51.440;6.938;2023-04-01T14:35:37;10.00;99.90
12436;DHT22;6282;51.440;6.938;2023-04-01T14:38:25;10.10;99.90
12436;DHT22;6282;51.440;6.938;2023-04-01T14:41:15;10.10;99.90
12436;DHT22;6282;51.440;6.938;2023-04-01T14:50:06;10.20;99.90
12436;DHT22;6282;51.440;6.938;2023-04-01T14:52:38;10.30;99.90
12436;DHT22;6282;51.440;6.938;2023-04-01T14:55:27;10.30;99.90
12436;DHT22;6282;51.440;6.938;2023-04-01T14:58:04;10.30;99.90
12436;DHT22;6282;51.440;6.938;2023-04-01T15:00:47;10.20;99.90
12436;DHT22;6282;51.440;6.938;2023-04-01T15:03:22;10.20;99.90
12436;DHT22;6282;51.440;6.938;2023-04-01T15:05:56;10.20;99.90
12436;DHT22;6282;51.440;6.938;2023-04-01T15:08:25;10.30;99.90
12436;DHT22;6282;51.440;6.938;2023-04-01T15:14:22;10.30;99.90
12436;DHT22;6282;51.440;6.938;2023-04-01T15:16:59;10.20;99.90
12436;DHT22;6282;51.440;6.938;2023-04-01T15:19:38;10.20;99.90
12436;DHT22;6282;51.440;6.938;2023-04-01T15:22:24;10.20;99.90
12436;DHT22;6282;51.440;6.938;2023-04-01T15:25:05;10.20;99.90
12436;DHT22;6282;51.440;6.938;2023-04-01T15:27:38;10.20;99.90
12436;DHT22;6282;51.440;6.938;2023-04-01T15:30:31;10.20;99.90
12436;DHT22;6282;51.440;6.938;2023-04-01T15:33:20;10.20;99.90
12436;DHT22;6282;51.440;6.938;2023-04-01T15:35:56;10.20;99.90
12436;DHT22;6282;51.440;6.938;2023-04-01T15:38:32;10.20;99.90
12436;DHT22;6282;51.440;6.938;2023-04-01T15:41:08;10.20;99.90
12436;DHT22;6282;51.440;6.938;2023-04-01T15:43:41;10.10;99.90
12436;DHT22;6282;51.440;6.938;2023-04-01T15:49:28;10.10;99.90
12436;DHT22;6282;51.440;6.938;2023-04-01T15:52:06;10.00;99.90
12436;DHT22;6282;51.440;6.938;2023-04-01T15:57:40;10.10;99.90
12436;DHT22;6282;51.440;6.938;2023-04-01T16:00:21;10.20;99.90
12436;DHT22;6282;51.440;6.938;2023-04-01T16:05:44;10.50;99.90
12436;DHT22;6282;51.440;6.938;2023-04-01T16:08:45;10.40;99.90
12436;DHT22;6282;51.440;6.938;2023-04-01T16:11:21;10.30;99.90
12436;DHT22;6282;51.440;6.938;2023-04-01T16:13:59;10.30;99.90
12436;DHT22;6282;51.440;6.938;2023-04-01T16:16:41;10.30;99.90
12436;DHT22;6282;51.440;6.938;2023-04-01T16:19:39;10.20;99.90
12436;DHT22;6282;51.440;6.938;2023-04-01T16:22:13;10.20;99.90
12436;DHT22;6282;51.440;6.938;2023-04-01T16:24:45;10.10;99.90
12436;DHT22;6282;51.440;6.938;2023-04-01T16:27:18;10.20;99.90
12436;DHT22;6282;51.440;6.938;2023-04-01T16:29:53;10.10;99.90
12436;DHT22;6282;51.440;6.938;2023-04-01T16:32:31;10.20;99.90
12436;DHT22;6282;51.440;6.938;2023-04-01T16:35:23;10.10;99.90
12436;DHT22;6282;51.440;6.938;2023-04-01T16:37:59;10.10;99.90
12436;DHT22;6282;51.440;6.938;2023-04-01T16:40:38;10.10;99.90
12436;DHT22;6282;51.440;6.938;2023-04-01T16:43:15;10.10;99.90
12436;DHT22;6282;51.440;6.938;2023-04-01T16:45:51;10.00;99.90
12436;DHT22;6282;51.440;6.938;2023-04-01T16:48:22;10.00;99.90
12436;DHT22;6282;51.440;6.938;2023-04-01T16:50:58;10.00;99.90
12436;DHT22;6282;51.440;6.938;2023-04-01T16:53:35;10.00;99.90
12436;DHT22;6282;51.440;6.938;2023-04-01T16:56:10;10.10;99.90
12436;DHT22;6282;51.440;6.938;2023-04-01T16:58:41;10.00;99.90
12436;DHT22;6282;51.440;6.938;2023-04-01T17:01:13;10.00;99.90
12436;DHT22;6282;51.440;6.938;2023-04-01T17:03:44;9.90;99.90
12436;DHT22;6282;51.440;6.938;2023-04-01T17:06:19;10.00;99.90
12436;DHT22;6282;51.440;6.938;2023-04-01T17:09:15;9.90;99.90
12436;DHT22;6282;51.440;6.938;2023-04-01T17:11:49;9.90;99.90
12436;DHT22;6282;51.440;6.938;2023-04-01T17:14:25;9.90;99.90
12436;DHT22;6282;51.440;6.938;2023-04-01T17:17:24;9.90;99.90
12436;DHT22;6282;51.440;6.938;2023-04-01T17:20:13;9.90;99.90
12436;DHT22;6282;51.440;6.938;2023-04-01T17:22:50;9.90;99.90
12436;DHT22;6282;51.440;6.938;2023-04-01T17:25:45;9.90;99.90
12436;DHT22;6282;51.440;6.938;2023-04-01T17:28:25;9.90;99.90
12436;DHT22;6282;51.440;6.938;2023-04-01T17:31:02;9.90;99.90
12436;DHT22;6282;51.440;6.938;2023-04-01T17:33:39;9.90;99.90
12436;DHT22;6282;51.440;6.938;2023-04-01T17:36:20;10.00;99.90
12436;DHT22;6282;51.440;6.938;2023-04-01T17:39:21;10.00;99.90
12436;DHT22;6282;51.440;6.938;2023-04-01T17:41:53;10.00;99.90
12436;DHT22;6282;51.440;6.938;2023-04-01T17:44:35;10.00;99.90
12436;DHT22;6282;51.440;6.938;2023-04-01T17:47:26;9.80;99.90
12436;DHT22;6282;51.440;6.938;2023-04-01T17:50:02;9.90;99.90
12436;DHT22;6282;51.440;6.938;2023-04-01T17:52:33;9.90;99.90
12436;DHT22;6282;51.440;6.938;2023-04-01T17:55:25;10.00;99.90
12436;DHT22;6282;51.440;6.938;2023-04-01T17:57:57;9.90;99.90
12436;DHT22;6282;51.440;6.938;2023-04-01T18:00:33;9.90;99.90
12436;DHT22;6282;51.440;6.938;2023-04-01T18:03:13;9.90;99.90
12436;DHT22;6282;51.440;6.938;2023-04-01T18:05:54;10.00;99.90
12436;DHT22;6282;51.440;6.938;2023-04-01T18:08:36;9.90;99.90
12436;DHT22;6282;51.440;6.938;2023-04-01T18:11:13;9.90;99.90
12436;DHT22;6282;51.440;6.938;2023-04-01T18:16:56;9.80;99.90
12436;DHT22;6282;51.440;6.938;2023-04-01T18:19:31;9.90;99.90
12436;DHT22;6282;51.440;6.938;2023-04-01T18:22:10;10.10;99.90
12436;DHT22;6282;51.440;6.938;2023-04-01T18:24:44;9.90;99.90
12436;DHT22;6282;51.440;6.938;2023-04-01T18:27:16;9.90;99.90
12436;DHT22;6282;51.440;6.938;2023-04-01T18:29:49;9.80;99.90
12436;DHT22;6282;51.440;6.938;2023-04-01T18:32:26;9.90;99.90
12436;DHT22;6282;51.440;6.938;2023-04-01T18:35:00;9.80;99.90
12436;DHT22;6282;51.440;6.938;2023-04-01T18:37:31;9.80;99.90
12436;DHT22;6282;51.440;6.938;2023-04-01T18:40:10;9.90;99.90
12436;DHT22;6282;51.440;6.938;2023-04-01T18:42:45;9.80;99.90
12436;DHT22;6282;51.440;6.938;2023-04-01T18:45:22;9.80;99.90
12436;DHT22;6282;51.440;6.938;2023-04-01T18:47:58;9.80;99.90
12436;DHT22;6282;51.440;6.938;2023-04-01T18:50:30;9.80;99.90